sensor_id;sensor_type;location;lat;lon;timestamp;pressure;altitude;pressure_sealevel;temperature;humidity
62031;BME280;62035;52.094;5.112;2023-03-19T00:00:17;101129.56;;;12.99;100.00
62031;BME280;62035;52.094;5.112;2023-03-19T00:02:45;101131.31;;;13.09;100.00
62031;BME280;62035;52.094;5.112;2023-03-19T00:05:16;101125.69;;;12.94;100.00
62031;BME280;62035;52.094;5.112;2023-03-19T00:07:45;101127.72;;;13.18;100.00
62031;BME280;62035;52.094;5.112;2023-03-19T00:10:13;101133.75;;;13.28;100.00
62031;BME280;62035;52.094;5.112;2023-03-19T00:12:41;101128.63;;;13.09;100.00
62031;BME280;62035;52.094;5.112;2023-03-19T00:15:09;101144.09;;;12.97;100.00
62031;BME280;62035;52.094;5.112;2023-03-19T00:17:39;101142.00;;;13.34;100.00
62031;BME280;62035;52.094;5.112;2023-03-19T00:20:08;101141.53;;;13.13;100.00
62031;BME280;62035;52.094;5.112;2023-03-19T00:22:37;101140.75;;;13.21;100.00
62031;BME280;62035;52.094;5.112;2023-03-19T00:25:08;101128.78;;;13.07;100.00
62031;BME280;62035;52.094;5.112;2023-03-19T00:27:36;101147.97;;;13.28;100.00
62031;BME280;62035;52.094;5.112;2023-03-19T00:30:05;101134.59;;;13.28;100.00
62031;BME280;62035;52.094;5.112;2023-03-19T00:32:34;101139.38;;;12.91;100.00
62031;BME280;62035;52.094;5.112;2023-03-19T00:35:03;101150.38;;;12.88;100.00
62031;BME280;62035;52.094;5.112;2023-03-19T00:37:31;101155.41;;;12.91;100.00
62031;BME280;62035;52.094;5.112;2023-03-19T00:39:59;101148.31;;;12.82;100.00
62031;BME280;62035;52.094;5.112;2023-03-19T00:42:28;101144.19;;;12.61;100.00
62031;BME280;62035;52.094;5.112;2023-03-19T00:44:56;101159.19;;;12.62;100.00
62031;BME280;62035;52.094;5.112;2023-03-19T00:47:24;101159.34;;;12.79;100.00
62031;BME280;62035;52.094;5.112;2023-03-19T00:49:52;101151.50;;;12.59;100.00
62031;BME280;62035;52.094;5.112;2023-03-19T00:52:20;101160.34;;;12.42;100.00
62031;BME280;62035;52.094;5.112;2023-03-19T00:54:48;101164.00;;;12.41;100.00
62031;BME280;62035;52.094;5.112;2023-03-19T00:57:16;101166.31;;;12.18;100.00
62031;BME280;62035;52.094;5.112;2023-03-19T00:59:44;101162.50;;;12.21;100.00
62031;BME280;62035;52.094;5.112;2023-03-19T01:02:13;101164.78;;;12.16;100.00
62031;BME280;62035;52.094;5.112;2023-03-19T01:04:40;101163.09;;;12.15;100.00
62031;BME280;62035;52.094;5.112;2023-03-19T01:07:08;101179.88;;;12.25;100.00
62031;BME280;62035;52.094;5.112;2023-03-19T01:09:37;101165.78;;;12.15;100.00
62031;BME280;62035;52.094;5.112;2023-03-19T01:12:05;101172.56;;;12.45;100.00
62031;BME280;62035;52.094;5.112;2023-03-19T01:14:33;101176.53;;;12.58;100.00
62031;BME280;62035;52.094;5.112;2023-03-19T01:17:02;101167.75;;;12.66;100.00
62031;BME280;62035;52.094;5.112;2023-03-19T01:19:30;101171.56;;;12.63;100.00
62031;BME280;62035;52.094;5.112;2023-03-19T01:21:57;101177.00;;;12.80;100.00
62031;BME280;62035;52.094;5.112;2023-03-19T01:24:28;101170.63;;;12.73;100.00
62031;BME280;62035;52.094;5.112;2023-03-19T01:26:56;101165.41;;;12.89;100.00
62031;BME280;62035;52.094;5.112;2023-03-19T01:29:24;101159.97;;;12.73;100.00
62031;BME280;62035;52.094;5.112;2023-03-19T01:31:51;101171.63;;;12.97;100.00
62031;BME280;62035;52.094;5.112;2023-03-19T01:34:20;101160.28;;;12.95;100.00
62031;BME280;62035;52.094;5.112;2023-03-19T01:36:48;101164.19;;;12.83;100.00
62031;BME280;62035;52.094;5.112;2023-03-19T01:39:15;101164.63;;;12.96;100.00
62031;BME280;62035;52.094;5.112;2023-03-19T01:41:43;101158.84;;;12.83;100.00
62031;BME280;62035;52.094;5.112;2023-03-19T01:44:25;101163.16;;;12.76;100.00
62031;BME280;62035;52.094;5.112;2023-03-19T01:46:54;101160.28;;;12.52;100.00
62031;BME280;62035;52.094;5.112;2023-03-19T01:49:26;101172.47;;;12.54;100.00
62031;BME280;62035;52.094;5.112;2023-03-19T01:51:58;101166.47;;;12.34;100.00
62031;BME280;62035;52.094;5.112;2023-03-19T01:54:30;101166.69;;;12.23;100.00
62031;BME280;62035;52.094;5.112;2023-03-19T01:57:03;101163.31;;;12.03;100.00
62031;BME280;62035;52.094;5.112;2023-03-19T01:59:35;101174.91;;;11.94;100.00
62031;BME280;62035;52.094;5.112;2023-03-19T02:02:06;101168.81;;;12.02;100.00
62031;BME280;62035;52.094;5.112;2023-03-19T02:04:40;101169.13;;;11.99;100.00
62031;BME280;62035;52.094;5.112;2023-03-19T02:07:11;101170.13;;;11.98;100.00
62031;BME280;62035;52.094;5.112;2023-03-19T02:09:40;101182.22;;;11.92;100.00
62031;BME280;62035;52.094;5.112;2023-03-19T02:12:08;101188.69;;;11.90;100.00
62031;BME280;62035;52.094;5.112;2023-03-19T02:14:36;101193.19;;;11.89;100.00
62031;BME280;62035;52.094;5.112;2023-03-19T02:17:04;101188.41;;;11.93;100.00
62031;BME280;62035;52.094;5.112;2023-03-19T02:19:39;101187.25;;;11.95;100.00
62031;BME280;62035;52.094;5.112;2023-03-19T02:22:13;101186.81;;;12.18;100.00
62031;BME280;62035;52.094;5.112;2023-03-19T02:24:48;101185.91;;;12.27;100.00
62031;BME280;62035;52.094;5.112;2023-03-19T02:27:21;101186.59;;;12.29;100.00
62031;BME280;62035;52.094;5.112;2023-03-19T02:29:49;101193.03;;;12.36;100.00
62031;BME280;62035;52.094;5.112;2023-03-19T02:32:17;101183.09;;;12.28;100.00
62031;BME280;62035;52.094;5.112;2023-03-19T02:34:45;101183.75;;;12.13;100.00
62031;BME280;62035;52.094;5.112;2023-03-19T02:37:16;101193.72;;;11.93;100.00
62031;BME280;62035;52.094;5.112;2023-03-19T02:39:50;101193.28;;;11.97;100.00
62031;BME280;62035;52.094;5.112;2023-03-19T02:42:25;101185.97;;;12.17;100.00
62031;BME280;62035;52.094;5.112;2023-03-19T02:44:55;101190.78;;;12.14;100.00
62031;BME280;62035;52.094;5.112;2023-03-19T02:47:23;101186.81;;;12.18;100.00
62031;BME280;62035;52.094;5.112;2023-03-19T02:49:52;101196.84;;;12.06;100.00
62031;BME280;62035;52.094;5.112;2023-03-19T02:52:20;101188.25;;;12.12;100.00
62031;BME280;62035;52.094;5.112;2023-03-19T02:54:47;101207.88;;;12.21;100.00
62031;BME280;62035;52.094;5.112;2023-03-19T02:57:15;101200.75;;;12.12;100.00
62031;BME280;62035;52.094;5.112;2023-03-19T02:59:44;101195.47;;;12.02;100.00
62031;BME280;62035;52.094;5.112;2023-03-19T03:02:12;101194.38;;;11.77;100.00
62031;BME280;62035;52.094;5.112;2023-03-19T03:04:40;101196.59;;;11.72;100.00
62031;BME280;62035;52.094;5.112;2023-03-19T03:07:08;101199.81;;;11.76;100.00
62031;BME280;62035;52.094;5.112;2023-03-19T03:09:35;101200.00;;;11.64;100.00
62031;BME280;62035;52.094;5.112;2023-03-19T03:12:04;101197.63;;;11.61;100.00
62031;BME280;62035;52.094;5.112;2023-03-19T03:14:32;101199.31;;;11.62;100.00
62031;BME280;62035;52.094;5.112;2023-03-19T03:17:01;101199.38;;;11.53;100.00
62031;BME280;62035;52.094;5.112;2023-03-19T03:19:29;101201.38;;;11.68;100.00
62031;BME280;62035;52.094;5.112;2023-03-19T03:21:57;101207.41;;;11.70;100.00
62031;BME280;62035;52.094;5.112;2023-03-19T03:24:26;101208.09;;;11.45;100.00
62031;BME280;62035;52.094;5.112;2023-03-19T03:26:53;101195.91;;;11.43;100.00
62031;BME280;62035;52.094;5.112;2023-03-19T03:29:21;101207.00;;;11.65;100.00
62031;BME280;62035;52.094;5.112;2023-03-19T03:31:49;101207.81;;;11.85;100.00
62031;BME280;62035;52.094;5.112;2023-03-19T03:34:18;101205.88;;;11.68;100.00
62031;BME280;62035;52.094;5.112;2023-03-19T03:36:45;101204.78;;;11.61;100.00
62031;BME280;62035;52.094;5.112;2023-03-19T03:39:13;101206.38;;;11.54;100.00
62031;BME280;62035;52.094;5.112;2023-03-19T03:41:41;101209.41;;;11.31;100.00
62031;BME280;62035;52.094;5.112;2023-03-19T03:44:08;101202.75;;;11.08;100.00
62031;BME280;62035;52.094;5.112;2023-03-19T03:46:36;101206.53;;;11.06;100.00
62031;BME280;62035;52.094;5.112;2023-03-19T03:49:03;101213.06;;;11.21;100.00
62031;BME280;62035;52.094;5.112;2023-03-19T03:51:32;101205.25;;;11.10;100.00
62031;BME280;62035;52.094;5.112;2023-03-19T03:54:00;101213.34;;;11.27;100.00
62031;BME280;62035;52.094;5.112;2023-03-19T03:56:27;101216.97;;;11.26;100.00
62031;BME280;62035;52.094;5.112;2023-03-19T03:58:56;101200.91;;;11.18;100.00
62031;BME280;62035;52.094;5.112;2023-03-19T04:01:23;101209.75;;;10.99;100.00
62031;BME280;62035;52.094;5.112;2023-03-19T04:03:51;101207.41;;;10.87;100.00
62031;BME280;62035;52.094;5.112;2023-03-19T04:06:20;101205.56;;;10.87;100.00
62031;BME280;62035;52.094;5.112;2023-03-19T04:08:51;101210.03;;;10.96;100.00
62031;BME280;62035;52.094;5.112;2023-03-19T04:11:19;101212.03;;;10.85;100.00
62031;BME280;62035;52.094;5.112;2023-03-19T04:13:48;101218.50;;;10.73;100.00
62031;BME280;62035;52.094;5.112;2023-03-19T04:16:16;101217.22;;;10.57;100.00
62031;BME280;62035;52.094;5.112;2023-03-19T04:18:43;101215.41;;;10.48;100.00
62031;BME280;62035;52.094;5.112;2023-03-19T04:21:11;101209.25;;;10.57;100.00
62031;BME280;62035;52.094;5.112;2023-03-19T04:23:38;101203.78;;;10.68;100.00
62031;BME280;62035;52.094;5.112;2023-03-19T04:26:08;101206.56;;;10.48;100.00
62031;BME280;62035;52.094;5.112;2023-03-19T04:28:37;101211.47;;;10.52;100.00
62031;BME280;62035;52.094;5.112;2023-03-19T04:31:06;101205.63;;;10.39;100.00
62031;BME280;62035;52.094;5.112;2023-03-19T04:33:36;101220.59;;;10.30;100.00
62031;BME280;62035;52.094;5.112;2023-03-19T04:36:04;101220.19;;;10.35;100.00
62031;BME280;62035;52.094;5.112;2023-03-19T04:38:32;101217.50;;;10.35;100.00
62031;BME280;62035;52.094;5.112;2023-03-19T04:40:59;101213.31;;;10.52;100.00
62031;BME280;62035;52.094;5.112;2023-03-19T04:43:29;101220.19;;;10.35;100.00
62031;BME280;62035;52.094;5.112;2023-03-19T04:45:57;101220.38;;;10.13;100.00
62031;BME280;62035;52.094;5.112;2023-03-19T04:48:25;101219.59;;;10.22;100.00
62031;BME280;62035;52.094;5.112;2023-03-19T04:50:53;101223.53;;;10.37;100.00
62031;BME280;62035;52.094;5.112;2023-03-19T04:53:22;101208.66;;;10.25;100.00
62031;BME280;62035;52.094;5.112;2023-03-19T04:55:50;101234.56;;;10.23;100.00
62031;BME280;62035;52.094;5.112;2023-03-19T04:58:18;101234.06;;;9.98;100.00
62031;BME280;62035;52.094;5.112;2023-03-19T05:00:47;101234.75;;;10.00;100.00
62031;BME280;62035;52.094;5.112;2023-03-19T05:03:15;101245.72;;;10.17;100.00
62031;BME280;62035;52.094;5.112;2023-03-19T05:05:43;101228.19;;;9.95;100.00
62031;BME280;62035;52.094;5.112;2023-03-19T05:08:11;101236.59;;;10.10;100.00
62031;BME280;62035;52.094;5.112;2023-03-19T05:10:39;101244.44;;;10.11;100.00
62031;BME280;62035;52.094;5.112;2023-03-19T05:13:07;101249.09;;;10.19;100.00
62031;BME280;62035;52.094;5.112;2023-03-19T05:15:34;101259.34;;;10.23;100.00
62031;BME280;62035;52.094;5.112;2023-03-19T05:18:03;101266.13;;;10.56;100.00
62031;BME280;62035;52.094;5.112;2023-03-19T05:20:31;101260.38;;;10.71;100.00
62031;BME280;62035;52.094;5.112;2023-03-19T05:22:59;101265.03;;;10.78;100.00
62031;BME280;62035;52.094;5.112;2023-03-19T05:25:26;101269.19;;;10.81;100.00
62031;BME280;62035;52.094;5.112;2023-03-19T05:27:55;101259.69;;;10.68;100.00
62031;BME280;62035;52.094;5.112;2023-03-19T05:30:23;101262.34;;;10.68;100.00
62031;BME280;62035;52.094;5.112;2023-03-19T05:32:52;101268.91;;;10.84;100.00
62031;BME280;62035;52.094;5.112;2023-03-19T05:35:23;101265.16;;;10.67;100.00
62031;BME280;62035;52.094;5.112;2023-03-19T05:37:51;101269.63;;;10.66;100.00
62031;BME280;62035;52.094;5.112;2023-03-19T05:40:19;101271.19;;;10.69;100.00
62031;BME280;62035;52.094;5.112;2023-03-19T05:42:47;101274.25;;;10.64;100.00
62031;BME280;62035;52.094;5.112;2023-03-19T05:45:15;101279.59;;;10.74;100.00
62031;BME280;62035;52.094;5.112;2023-03-19T05:47:45;101287.81;;;10.81;100.00
62031;BME280;62035;52.094;5.112;2023-03-19T05:50:15;101290.59;;;10.50;100.00
62031;BME280;62035;52.094;5.112;2023-03-19T05:52:44;101286.31;;;10.68;100.00
62031;BME280;62035;52.094;5.112;2023-03-19T05:55:12;101301.44;;;10.68;100.00
62031;BME280;62035;52.094;5.112;2023-03-19T05:57:40;101288.25;;;10.66;100.00
62031;BME280;62035;52.094;5.112;2023-03-19T06:00:08;101288.13;;;10.78;100.00
62031;BME280;62035;52.094;5.112;2023-03-19T06:02:37;101280.44;;;10.75;100.00
62031;BME280;62035;52.094;5.112;2023-03-19T06:05:06;101290.50;;;10.61;100.00
62031;BME280;62035;52.094;5.112;2023-03-19T06:07:34;101290.47;;;10.52;100.00
62031;BME280;62035;52.094;5.112;2023-03-19T06:10:04;101292.06;;;10.74;100.00
62031;BME280;62035;52.094;5.112;2023-03-19T06:12:33;101290.38;;;10.73;100.00
62031;BME280;62035;52.094;5.112;2023-03-19T06:15:01;101284.63;;;10.77;100.00
62031;BME280;62035;52.094;5.112;2023-03-19T06:17:29;101299.72;;;10.57;100.00
62031;BME280;62035;52.094;5.112;2023-03-19T06:19:57;101303.25;;;10.67;100.00
62031;BME280;62035;52.094;5.112;2023-03-19T06:22:25;101302.13;;;10.60;100.00
62031;BME280;62035;52.094;5.112;2023-03-19T06:24:53;101308.25;;;10.51;100.00
62031;BME280;62035;52.094;5.112;2023-03-19T06:27:22;101317.06;;;10.32;100.00
62031;BME280;62035;52.094;5.112;2023-03-19T06:29:49;101319.00;;;10.40;100.00
62031;BME280;62035;52.094;5.112;2023-03-19T06:32:17;101328.84;;;10.49;100.00
62031;BME280;62035;52.094;5.112;2023-03-19T06:34:44;101331.69;;;10.67;100.00
62031;BME280;62035;52.094;5.112;2023-03-19T06:37:12;101325.09;;;10.61;100.00
62031;BME280;62035;52.094;5.112;2023-03-19T06:39:40;101332.53;;;10.87;100.00
62031;BME280;62035;52.094;5.112;2023-03-19T06:42:08;101318.78;;;10.62;100.00
62031;BME280;62035;52.094;5.112;2023-03-19T06:44:37;101340.25;;;10.71;100.00
62031;BME280;62035;52.094;5.112;2023-03-19T06:47:05;101346.72;;;11.07;100.00
62031;BME280;62035;52.094;5.112;2023-03-19T06:49:33;101346.00;;;11.24;100.00
62031;BME280;62035;52.094;5.112;2023-03-19T06:52:01;101336.47;;;11.02;100.00
62031;BME280;62035;52.094;5.112;2023-03-19T06:54:29;101341.34;;;10.68;100.00
62031;BME280;62035;52.094;5.112;2023-03-19T06:56:56;101354.91;;;10.55;100.00
62031;BME280;62035;52.094;5.112;2023-03-19T06:59:24;101361.41;;;10.72;100.00
62031;BME280;62035;52.094;5.112;2023-03-19T07:01:53;101351.19;;;10.87;100.00
62031;BME280;62035;52.094;5.112;2023-03-19T07:04:21;101357.78;;;11.02;100.00
62031;BME280;62035;52.094;5.112;2023-03-19T07:06:48;101360.03;;;10.97;100.00
62031;BME280;62035;52.094;5.112;2023-03-19T07:09:16;101374.56;;;10.64;100.00
62031;BME280;62035;52.094;5.112;2023-03-19T07:11:43;101371.91;;;10.74;100.00
62031;BME280;62035;52.094;5.112;2023-03-19T07:14:11;101375.81;;;10.69;100.00
62031;BME280;62035;52.094;5.112;2023-03-19T07:16:39;101379.00;;;10.54;100.00
62031;BME280;62035;52.094;5.112;2023-03-19T07:19:08;101382.66;;;10.62;100.00
62031;BME280;62035;52.094;5.112;2023-03-19T07:21:35;101394.06;;;10.74;100.00
62031;BME280;62035;52.094;5.112;2023-03-19T07:24:03;101387.72;;;10.65;100.00
62031;BME280;62035;52.094;5.112;2023-03-19T07:26:31;101393.59;;;10.59;100.00
62031;BME280;62035;52.094;5.112;2023-03-19T07:28:59;101399.00;;;10.48;100.00
62031;BME280;62035;52.094;5.112;2023-03-19T07:31:26;101401.41;;;10.51;100.00
62031;BME280;62035;52.094;5.112;2023-03-19T07:33:54;101401.59;;;10.69;100.00
62031;BME280;62035;52.094;5.112;2023-03-19T07:36:23;101396.69;;;10.64;100.00
62031;BME280;62035;52.094;5.112;2023-03-19T07:38:51;101389.94;;;10.60;100.00
62031;BME280;62035;52.094;5.112;2023-03-19T07:41:19;101397.44;;;10.76;100.00
62031;BME280;62035;52.094;5.112;2023-03-19T07:43:46;101398.53;;;10.83;100.00
62031;BME280;62035;52.094;5.112;2023-03-19T07:46:14;101398.41;;;10.85;100.00
62031;BME280;62035;52.094;5.112;2023-03-19T07:48:43;101409.91;;;10.95;100.00
62031;BME280;62035;52.094;5.112;2023-03-19T07:51:10;101402.22;;;11.11;100.00
62031;BME280;62035;52.094;5.112;2023-03-19T07:53:39;101403.47;;;10.97;100.00
62031;BME280;62035;52.094;5.112;2023-03-19T07:56:07;101412.72;;;10.93;100.00
62031;BME280;62035;52.094;5.112;2023-03-19T07:58:35;101415.69;;;11.10;100.00
62031;BME280;62035;52.094;5.112;2023-03-19T08:01:02;101416.50;;;11.00;100.00
62031;BME280;62035;52.094;5.112;2023-03-19T08:03:30;101418.50;;;11.08;100.00
62031;BME280;62035;52.094;5.112;2023-03-19T08:05:58;101426.34;;;11.39;100.00
62031;BME280;62035;52.094;5.112;2023-03-19T08:08:26;101409.38;;;11.49;100.00
62031;BME280;62035;52.094;5.112;2023-03-19T08:10:55;101412.19;;;11.28;100.00
62031;BME280;62035;52.094;5.112;2023-03-19T08:13:23;101411.75;;;11.23;100.00
62031;BME280;62035;52.094;5.112;2023-03-19T08:15:50;101428.72;;;11.22;100.00
62031;BME280;62035;52.094;5.112;2023-03-19T08:18:18;101422.13;;;11.65;100.00
62031;BME280;62035;52.094;5.112;2023-03-19T08:20:46;101418.34;;;11.96;100.00
62031;BME280;62035;52.094;5.112;2023-03-19T08:23:14;101414.41;;;11.81;100.00
62031;BME280;62035;52.094;5.112;2023-03-19T08:25:42;101421.38;;;12.01;100.00
62031;BME280;62035;52.094;5.112;2023-03-19T08:28:11;101416.94;;;11.92;100.00
62031;BME280;62035;52.094;5.112;2023-03-19T08:30:39;101423.56;;;11.50;100.00
62031;BME280;62035;52.094;5.112;2023-03-19T08:33:07;101433.34;;;11.20;100.00
62031;BME280;62035;52.094;5.112;2023-03-19T08:35:34;101432.94;;;11.06;100.00
62031;BME280;62035;52.094;5.112;2023-03-19T08:38:02;101438.25;;;11.06;100.00
62031;BME280;62035;52.094;5.112;2023-03-19T08:40:30;101451.84;;;11.22;100.00
62031;BME280;62035;52.094;5.112;2023-03-19T08:42:57;101464.09;;;11.53;100.00
62031;BME280;62035;52.094;5.112;2023-03-19T08:45:27;101451.47;;;11.55;100.00
62031;BME280;62035;52.094;5.112;2023-03-19T08:47:55;101464.78;;;11.65;100.00
62031;BME280;62035;52.094;5.112;2023-03-19T08:50:24;101453.00;;;11.87;100.00
62031;BME280;62035;52.094;5.112;2023-03-19T08:52:52;101452.31;;;11.94;100.00
62031;BME280;62035;52.094;5.112;2023-03-19T08:55:20;101455.94;;;11.64;100.00
62031;BME280;62035;52.094;5.112;2023-03-19T08:57:48;101467.88;;;11.70;100.00
62031;BME280;62035;52.094;5.112;2023-03-19T09:00:16;101467.88;;;11.60;100.00
62031;BME280;62035;52.094;5.112;2023-03-19T09:02:46;101470.09;;;11.75;100.00
62031;BME280;62035;52.094;5.112;2023-03-19T09:05:14;101452.28;;;11.65;100.00
62031;BME280;62035;52.094;5.112;2023-03-19T09:07:41;101469.25;;;11.64;100.00
62031;BME280;62035;52.094;5.112;2023-03-19T09:10:09;101471.69;;;11.77;100.00
62031;BME280;62035;52.094;5.112;2023-03-19T09:12:37;101472.38;;;11.79;100.00
62031;BME280;62035;52.094;5.112;2023-03-19T09:15:05;101477.88;;;11.87;100.00
62031;BME280;62035;52.094;5.112;2023-03-19T09:17:33;101480.47;;;12.07;100.00
62031;BME280;62035;52.094;5.112;2023-03-19T09:20:03;101480.88;;;12.31;100.00
62031;BME280;62035;52.094;5.112;2023-03-19T09:22:32;101489.31;;;12.17;100.00
62031;BME280;62035;52.094;5.112;2023-03-19T09:25:00;101488.16;;;12.29;100.00
62031;BME280;62035;52.094;5.112;2023-03-19T09:27:27;101479.47;;;12.17;100.00
62031;BME280;62035;52.094;5.112;2023-03-19T09:29:55;101481.19;;;12.09;100.00
62031;BME280;62035;52.094;5.112;2023-03-19T09:32:22;101492.13;;;12.25;100.00
62031;BME280;62035;52.094;5.112;2023-03-19T09:34:50;101491.44;;;12.03;100.00
62031;BME280;62035;52.094;5.112;2023-03-19T09:37:19;101493.00;;;11.96;100.00
62031;BME280;62035;52.094;5.112;2023-03-19T09:39:47;101500.03;;;11.88;100.00
62031;BME280;62035;52.094;5.112;2023-03-19T09:42:26;101503.34;;;12.28;100.00
62031;BME280;62035;52.094;5.112;2023-03-19T09:45:12;101503.41;;;12.46;100.00
62031;BME280;62035;52.094;5.112;2023-03-19T09:47:42;101504.47;;;12.16;100.00
62031;BME280;62035;52.094;5.112;2023-03-19T09:50:15;101507.47;;;12.50;100.00
62031;BME280;62035;52.094;5.112;2023-03-19T09:52:47;101509.69;;;12.64;100.00
62031;BME280;62035;52.094;5.112;2023-03-19T09:55:30;101507.69;;;12.29;100.00
62031;BME280;62035;52.094;5.112;2023-03-19T09:58:10;101511.28;;;12.48;100.00
62031;BME280;62035;52.094;5.112;2023-03-19T10:00:43;101517.03;;;12.90;100.00
62031;BME280;62035;52.094;5.112;2023-03-19T10:06:26;101513.66;;;13.15;100.00
62031;BME280;62035;52.094;5.112;2023-03-19T10:09:09;101520.94;;;12.95;100.00
62031;BME280;62035;52.094;5.112;2023-03-19T10:12:04;101524.09;;;13.09;100.00
62031;BME280;62035;52.094;5.112;2023-03-19T10:15:01;101519.66;;;12.99;100.00
62031;BME280;62035;52.094;5.112;2023-03-19T10:17:40;101520.06;;;12.77;100.00
62031;BME280;62035;52.094;5.112;2023-03-19T10:20:20;101519.56;;;12.82;100.00
62031;BME280;62035;52.094;5.112;2023-03-19T10:22:59;101523.06;;;12.92;100.00
62031;BME280;62035;52.094;5.112;2023-03-19T10:25:38;101528.34;;;13.01;100.00
62031;BME280;62035;52.094;5.112;2023-03-19T10:28:13;101534.28;;;12.58;100.00
62031;BME280;62035;52.094;5.112;2023-03-19T10:30:48;101538.38;;;12.53;100.00
62031;BME280;62035;52.094;5.112;2023-03-19T10:33:23;101539.38;;;12.89;100.00
62031;BME280;62035;52.094;5.112;2023-03-19T10:35:57;101540.97;;;13.09;100.00
62031;BME280;62035;52.094;5.112;2023-03-19T10:38:30;101545.03;;;13.13;100.00
62031;BME280;62035;52.094;5.112;2023-03-19T10:41:18;101551.75;;;12.90;100.00
62031;BME280;62035;52.094;5.112;2023-03-19T10:43:57;101550.03;;;12.98;100.00
62031;BME280;62035;52.094;5.112;2023-03-19T10:46:36;101552.97;;;13.05;100.00
62031;BME280;62035;52.094;5.112;2023-03-19T10:49:04;101558.59;;;13.02;100.00
62031;BME280;62035;52.094;5.112;2023-03-19T10:51:37;101562.53;;;12.98;100.00
62031;BME280;62035;52.094;5.112;2023-03-19T10:54:18;101559.56;;;13.01;100.00
62031;BME280;62035;52.094;5.112;2023-03-19T10:56:50;101573.09;;;12.53;100.00
62031;BME280;62035;52.094;5.112;2023-03-19T10:59:25;101579.97;;;13.02;100.00
62031;BME280;62035;52.094;5.112;2023-03-19T11:02:00;101564.09;;;13.00;100.00
62031;BME280;62035;52.094;5.112;2023-03-19T11:04:29;101573.75;;;13.11;100.00
62031;BME280;62035;52.094;5.112;2023-03-19T11:07:02;101582.94;;;12.99;100.00
62031;BME280;62035;52.094;5.112;2023-03-19T11:09:38;101568.25;;;13.13;100.00
62031;BME280;62035;52.094;5.112;2023-03-19T11:12:16;101564.59;;;13.14;100.00
62031;BME280;62035;52.094;5.112;2023-03-19T11:14:47;101562.91;;;13.13;100.00
62031;BME280;62035;52.094;5.112;2023-03-19T11:17:21;101568.91;;;12.87;100.00
62031;BME280;62035;52.094;5.112;2023-03-19T11:19:52;101570.19;;;13.20;100.00
62031;BME280;62035;52.094;5.112;2023-03-19T11:22:23;101560.88;;;13.24;100.00
62031;BME280;62035;52.094;5.112;2023-03-19T11:24:53;101570.84;;;13.32;100.00
62031;BME280;62035;52.094;5.112;2023-03-19T11:27:28;101565.16;;;13.62;100.00
62031;BME280;62035;52.094;5.112;2023-03-19T11:29:59;101557.47;;;13.59;100.00
62031;BME280;62035;52.094;5.112;2023-03-19T11:35:37;101563.84;;;13.21;100.00
62031;BME280;62035;52.094;5.112;2023-03-19T11:38:16;101567.03;;;13.34;100.00
62031;BME280;62035;52.094;5.112;2023-03-19T11:40:54;101562.44;;;13.27;100.00
62031;BME280;62035;52.094;5.112;2023-03-19T11:43:47;101573.09;;;12.99;100.00
62031;BME280;62035;52.094;5.112;2023-03-19T11:46:35;101577.00;;;13.05;100.00
62031;BME280;62035;52.094;5.112;2023-03-19T11:49:29;101579.59;;;12.87;100.00
62031;BME280;62035;52.094;5.112;2023-03-19T11:52:16;101580.84;;;12.93;100.00
62031;BME280;62035;52.094;5.112;2023-03-19T11:55:02;101565.66;;;12.93;100.00
62031;BME280;62035;52.094;5.112;2023-03-19T11:57:57;101585.78;;;12.88;100.00
62031;BME280;62035;52.094;5.112;2023-03-19T12:00:45;101578.66;;;13.43;100.00
62031;BME280;62035;52.094;5.112;2023-03-19T12:03:34;101578.31;;;13.56;100.00
62031;BME280;62035;52.094;5.112;2023-03-19T12:06:39;101577.22;;;13.66;100.00
62031;BME280;62035;52.094;5.112;2023-03-19T12:09:20;101572.56;;;13.51;100.00
62031;BME280;62035;52.094;5.112;2023-03-19T12:12:00;101567.31;;;13.59;100.00
62031;BME280;62035;52.094;5.112;2023-03-19T12:14:49;101566.38;;;14.03;100.00
62031;BME280;62035;52.094;5.112;2023-03-19T12:17:37;101561.47;;;14.17;100.00
62031;BME280;62035;52.094;5.112;2023-03-19T12:20:20;101566.16;;;14.41;100.00
62031;BME280;62035;52.094;5.112;2023-03-19T12:23:06;101570.41;;;14.43;100.00
62031;BME280;62035;52.094;5.112;2023-03-19T12:26:00;101573.41;;;14.22;100.00
62031;BME280;62035;52.094;5.112;2023-03-19T12:28:33;101584.88;;;14.15;100.00
62031;BME280;62035;52.094;5.112;2023-03-19T12:31:33;101580.38;;;14.15;100.00
62031;BME280;62035;52.094;5.112;2023-03-19T12:34:23;101574.44;;;14.47;100.00
62031;BME280;62035;52.094;5.112;2023-03-19T12:37:11;101579.25;;;14.61;100.00
62031;BME280;62035;52.094;5.112;2023-03-19T12:39:51;101574.41;;;14.65;100.00
62031;BME280;62035;52.094;5.112;2023-03-19T12:42:35;101578.09;;;14.64;100.00
62031;BME280;62035;52.094;5.112;2023-03-19T12:45:18;101582.72;;;14.54;100.00
62031;BME280;62035;52.094;5.112;2023-03-19T12:47:57;101576.50;;;14.53;100.00
62031;BME280;62035;52.094;5.112;2023-03-19T12:50:35;101579.31;;;14.70;100.00
62031;BME280;62035;52.094;5.112;2023-03-19T12:53:09;101586.31;;;14.45;100.00
62031;BME280;62035;52.094;5.112;2023-03-19T12:55:47;101569.53;;;14.60;100.00
62031;BME280;62035;52.094;5.112;2023-03-19T12:58:24;101582.03;;;14.78;100.00
62031;BME280;62035;52.094;5.112;2023-03-19T13:01:03;101577.72;;;15.27;100.00
62031;BME280;62035;52.094;5.112;2023-03-19T13:03:40;101576.09;;;15.34;100.00
62031;BME280;62035;52.094;5.112;2023-03-19T13:06:20;101580.56;;;15.25;100.00